createdAt,value
2023-02-06T00:01:52.793Z,5.30
2023-02-06T00:04:21.693Z,6.00
2023-02-06T00:06:51.490Z,5.20
2023-02-06T00:09:20.474Z,5.85
2023-02-06T00:11:49.154Z,5.32
2023-02-06T00:14:19.678Z,5.15
2023-02-06T00:16:48.206Z,5.47
2023-02-06T00:19:16.765Z,4.53
2023-02-06T00:21:45.583Z,4.72
2023-02-06T00:24:14.078Z,5.10
2023-02-06T00:26:42.780Z,5.00
2023-02-06T00:29:11.330Z,4.78
2023-02-06T00:31:41.549Z,5.28
2023-02-06T00:34:10.990Z,5.50
2023-02-06T00:36:39.524Z,5.85
2023-02-06T00:39:08.131Z,5.22
2023-02-06T00:41:36.682Z,5.57
2023-02-06T00:44:05.363Z,5.88
2023-02-06T00:46:34.128Z,5.53
2023-02-06T00:49:05.100Z,4.95
2023-02-06T00:51:33.876Z,4.88
2023-02-06T00:54:02.696Z,5.82
2023-02-06T00:56:31.299Z,4.78
2023-02-06T00:59:00.306Z,5.65
2023-02-06T01:01:29.690Z,4.53
2023-02-06T01:03:58.378Z,5.10
2023-02-06T01:06:28.376Z,5.32
2023-02-06T01:08:57.141Z,5.30
2023-02-06T01:11:27.671Z,5.28
2023-02-06T01:13:56.809Z,5.00
2023-02-06T01:16:26.835Z,5.18
2023-02-06T01:18:55.984Z,5.05
2023-02-06T01:21:28.143Z,4.72
2023-02-06T01:23:57.473Z,5.05
2023-02-06T01:26:28.157Z,6.15
2023-02-06T01:28:57.993Z,5.22
2023-02-06T01:31:28.667Z,5.50
2023-02-06T01:34:00.281Z,5.63
2023-02-06T01:36:30.940Z,6.10
2023-02-06T01:39:00.521Z,4.65
2023-02-06T01:41:29.275Z,5.25
2023-02-06T01:44:15.788Z,4.97
2023-02-06T01:46:47.187Z,4.72
2023-02-06T01:49:21.978Z,4.55
2023-02-06T01:51:55.319Z,5.10
2023-02-06T01:54:24.393Z,4.40
2023-02-06T01:56:57.629Z,4.68
2023-02-06T01:59:27.701Z,4.82
2023-02-06T02:01:56.552Z,4.22
2023-02-06T02:04:28.058Z,7.28
2023-02-06T02:07:07.857Z,4.43
2023-02-06T02:09:36.602Z,5.97
2023-02-06T02:12:06.284Z,4.43
2023-02-06T02:14:35.410Z,5.10
2023-02-06T02:17:22.035Z,4.75
2023-02-06T02:20:47.696Z,4.22
2023-02-06T02:23:32.698Z,4.28
2023-02-06T02:26:43.636Z,4.00
2023-02-06T02:29:53.573Z,4.30
2023-02-06T02:33:11.685Z,4.13
2023-02-06T02:35:54.589Z,5.03
2023-02-06T02:38:39.735Z,4.22
2023-02-06T02:41:16.765Z,3.95
2023-02-06T02:43:52.396Z,4.30
2023-02-06T02:46:27.639Z,3.88
2023-02-06T02:51:28.512Z,3.42
2023-02-06T02:53:58.304Z,4.53
2023-02-06T02:56:28.720Z,4.93
2023-02-06T02:59:03.412Z,5.65
2023-02-06T03:01:36.896Z,3.78
2023-02-06T03:04:13.416Z,5.45
2023-02-06T03:07:02.093Z,4.68
2023-02-06T03:09:46.052Z,3.67
2023-02-06T03:12:23.036Z,4.07
2023-02-06T03:15:01.119Z,3.85
2023-02-06T03:17:37.674Z,3.85
2023-02-06T03:20:09.893Z,4.07
2023-02-06T03:22:42.074Z,3.90
2023-02-06T03:25:17.458Z,4.25
2023-02-06T03:27:48.150Z,4.32
2023-02-06T03:30:20.592Z,4.05
2023-02-06T03:32:55.044Z,4.43
2023-02-06T03:35:30.324Z,3.57
2023-02-06T03:40:29.507Z,4.13
2023-02-06T03:43:02.655Z,3.38
2023-02-06T03:45:38.146Z,3.90
2023-02-06T03:48:15.722Z,4.05
2023-02-06T03:50:50.276Z,4.47
2023-02-06T03:53:22.472Z,4.32
2023-02-06T03:55:57.732Z,4.03
2023-02-06T04:00:54.851Z,3.33
2023-02-06T04:03:23.786Z,3.17
2023-02-06T04:05:52.356Z,3.30
2023-02-06T04:08:22.315Z,3.85
2023-02-06T04:10:50.864Z,3.30
2023-02-06T04:13:31.526Z,3.38
2023-02-06T04:16:00.459Z,4.22
2023-02-06T04:18:29.012Z,2.90
2023-02-06T04:20:57.570Z,3.67
2023-02-06T04:23:27.610Z,3.85
2023-02-06T04:25:56.286Z,4.13
2023-02-06T04:28:24.850Z,3.83
2023-02-06T04:30:53.443Z,2.63
2023-02-06T04:33:22.105Z,4.75
2023-02-06T04:35:50.755Z,4.60
2023-02-06T04:38:19.325Z,3.47
2023-02-06T04:40:49.212Z,3.95
2023-02-06T04:43:17.713Z,3.97
2023-02-06T04:45:47.622Z,3.85
2023-02-06T04:48:16.065Z,4.38
2023-02-06T04:50:44.588Z,4.28
2023-02-06T04:53:13.272Z,4.35
2023-02-06T04:55:41.858Z,3.58
2023-02-06T04:58:12.646Z,4.50
2023-02-06T05:00:41.076Z,5.38
2023-02-06T05:03:09.801Z,4.07
2023-02-06T05:05:38.357Z,4.50
2023-02-06T05:08:07.229Z,3.85
2023-02-06T05:10:35.785Z,4.13
2023-02-06T05:13:05.496Z,4.60
2023-02-06T05:15:37.486Z,3.72
2023-02-06T05:18:06.736Z,4.43
2023-02-06T05:20:35.350Z,3.80
2023-02-06T05:23:06.664Z,4.80
2023-02-06T05:25:36.636Z,8.40
2023-02-06T05:28:07.613Z,6.18
2023-02-06T05:30:38.168Z,4.75
2023-02-06T05:33:06.591Z,6.00
2023-02-06T05:35:36.031Z,5.05
2023-02-06T05:38:04.960Z,8.05
2023-02-06T05:40:33.677Z,5.35
2023-02-06T05:43:02.334Z,5.32
2023-02-06T05:45:31.028Z,5.20
2023-02-06T05:48:01.344Z,5.35
2023-02-06T05:50:30.141Z,4.68
2023-02-06T05:52:58.719Z,4.90
2023-02-06T05:55:27.610Z,3.97
2023-02-06T05:57:57.272Z,5.40
2023-02-06T06:00:26.187Z,7.68
2023-02-06T06:02:54.996Z,8.15
2023-02-06T06:05:25.853Z,7.88
2023-02-06T06:07:54.508Z,9.27
2023-02-06T06:10:23.083Z,9.85
2023-02-06T06:12:51.870Z,18.33
2023-02-06T06:15:20.534Z,10.10
2023-02-06T06:17:49.223Z,9.00
2023-02-06T06:20:18.303Z,8.23
2023-02-06T06:22:48.628Z,8.73
2023-02-06T06:25:17.390Z,10.55
2023-02-06T06:27:45.997Z,9.20
2023-02-06T06:30:15.476Z,12.55
2023-02-06T06:32:44.216Z,7.05
2023-02-06T06:35:12.697Z,5.68
2023-02-06T06:37:41.588Z,4.97
2023-02-06T06:40:13.158Z,7.70
2023-02-06T06:42:41.739Z,5.72
2023-02-06T06:45:11.195Z,8.45
2023-02-06T06:47:39.876Z,6.40
2023-02-06T06:50:09.044Z,5.05
2023-02-06T06:52:37.925Z,5.38
2023-02-06T06:55:07.598Z,9.38
2023-02-06T06:57:37.595Z,6.20
2023-02-06T07:00:07.607Z,6.00
2023-02-06T07:02:36.170Z,9.43
2023-02-06T07:05:05.472Z,8.05
2023-02-06T07:07:34.652Z,9.25
2023-02-06T07:10:03.603Z,16.73
2023-02-06T07:12:32.408Z,8.40
2023-02-06T07:15:05.696Z,8.57
2023-02-06T07:17:34.976Z,8.48
2023-02-06T07:20:03.771Z,8.68
2023-02-06T07:22:32.402Z,9.45
2023-02-06T07:25:01.150Z,6.18
2023-02-06T07:27:29.699Z,9.05
2023-02-06T07:29:59.739Z,7.55
2023-02-06T07:32:29.715Z,14.10
2023-02-06T07:34:58.285Z,9.95
2023-02-06T07:37:27.010Z,8.05
2023-02-06T07:39:55.446Z,7.43
2023-02-06T07:42:24.005Z,8.23
2023-02-06T07:44:52.585Z,7.47
2023-02-06T07:47:21.117Z,9.25
2023-02-06T07:49:52.199Z,7.25
2023-02-06T07:52:22.395Z,7.57
2023-02-06T07:54:51.017Z,8.05
2023-02-06T07:57:20.088Z,8.18
2023-02-06T07:59:48.585Z,8.63
2023-02-06T08:02:17.086Z,8.55
2023-02-06T08:04:45.866Z,8.73
2023-02-06T08:07:19.265Z,8.35
2023-02-06T08:09:47.972Z,9.40
2023-02-06T08:12:16.602Z,9.05
2023-02-06T08:14:45.986Z,10.07
2023-02-06T08:17:19.644Z,8.48
2023-02-06T08:19:49.590Z,8.07
2023-02-06T08:22:19.679Z,8.13
2023-02-06T08:24:48.901Z,8.05
2023-02-06T08:27:17.538Z,8.85
2023-02-06T08:29:46.225Z,8.10
2023-02-06T08:32:14.970Z,8.55
2023-02-06T08:34:43.705Z,9.50
2023-02-06T08:37:12.693Z,8.95
2023-02-06T08:39:43.045Z,9.25
2023-02-06T08:42:12.658Z,8.95
2023-02-06T08:44:41.178Z,9.13
2023-02-06T08:47:10.739Z,8.85
2023-02-06T08:49:39.921Z,9.13
2023-02-06T08:52:08.898Z,10.07
2023-02-06T08:54:38.913Z,9.40
2023-02-06T08:57:09.874Z,9.65
2023-02-06T08:59:38.665Z,9.48
2023-02-06T09:02:08.608Z,9.20
2023-02-06T09:04:37.947Z,9.77
2023-02-06T09:07:07.290Z,9.05
2023-02-06T09:09:36.034Z,10.20
2023-02-06T09:12:05.366Z,8.85
2023-02-06T09:14:35.663Z,9.32
2023-02-06T09:17:04.487Z,10.07
2023-02-06T09:19:33.155Z,9.07
2023-02-06T09:22:01.995Z,9.10
2023-02-06T09:24:32.594Z,10.48
2023-02-06T09:27:01.337Z,9.05
2023-02-06T09:29:31.985Z,9.20
2023-02-06T09:32:02.912Z,8.73
2023-02-06T09:34:31.692Z,8.55
2023-02-06T09:37:03.537Z,7.57
2023-02-06T09:39:32.681Z,8.30
2023-02-06T09:42:08.500Z,8.32
2023-02-06T09:44:43.353Z,8.93
2023-02-06T09:47:24.176Z,9.20
2023-02-06T09:49:57.758Z,8.20
2023-02-06T09:52:45.667Z,7.80
2023-02-06T09:55:27.535Z,8.35
2023-02-06T09:58:04.985Z,8.40
2023-02-06T10:00:44.091Z,8.25
2023-02-06T10:03:36.447Z,7.55
2023-02-06T10:06:19.499Z,9.52
2023-02-06T10:08:59.600Z,9.50
2023-02-06T10:11:42.638Z,8.57
2023-02-06T10:14:22.380Z,8.60
2023-02-06T10:16:57.807Z,9.40
2023-02-06T10:19:43.900Z,7.38
2023-02-06T10:22:21.198Z,7.68
2023-02-06T10:25:01.671Z,5.75
2023-02-06T10:27:34.554Z,5.45
2023-02-06T10:30:04.238Z,5.85
2023-02-06T10:32:45.937Z,6.35
2023-02-06T10:35:41.121Z,5.40
2023-02-06T10:38:53.263Z,5.13
2023-02-06T10:41:33.586Z,5.47
2023-02-06T10:44:17.627Z,5.32
2023-02-06T10:46:51.000Z,6.50
2023-02-06T10:49:30.563Z,5.25
2023-02-06T10:52:05.042Z,5.47
2023-02-06T10:54:40.054Z,5.38
2023-02-06T10:57:18.486Z,4.82
2023-02-06T10:59:53.665Z,5.03
2023-02-06T11:02:35.584Z,5.75
2023-02-06T11:05:10.744Z,4.93
2023-02-06T11:07:46.531Z,5.45
2023-02-06T11:10:19.104Z,5.55
2023-02-06T11:12:53.226Z,4.70
2023-02-06T11:15:32.766Z,5.55
2023-02-06T11:18:05.662Z,4.57
2023-02-06T11:20:37.924Z,6.65
2023-02-06T11:23:20.440Z,5.60
2023-02-06T11:25:58.294Z,4.95
2023-02-06T11:28:28.161Z,5.97
2023-02-06T11:31:00.041Z,5.65
2023-02-06T11:33:39.178Z,5.07
2023-02-06T11:36:27.360Z,6.00
2023-02-06T11:39:00.964Z,5.93
2023-02-06T11:41:31.499Z,6.43
2023-02-06T11:44:06.600Z,5.32
2023-02-06T11:46:37.391Z,5.88
2023-02-06T11:49:22.620Z,6.35
2023-02-06T11:51:54.396Z,4.65
2023-02-06T11:54:30.661Z,5.75
2023-02-06T11:57:04.495Z,5.45
2023-02-06T11:59:35.485Z,5.20
2023-02-06T12:02:23.560Z,5.05
2023-02-06T12:04:54.593Z,5.00
2023-02-06T12:07:31.249Z,4.82
2023-02-06T12:10:06.887Z,5.63
2023-02-06T12:12:39.146Z,4.80
2023-02-06T12:15:39.963Z,4.72
2023-02-06T12:18:08.180Z,4.85
2023-02-06T12:20:48.515Z,5.15
2023-02-06T12:23:26.032Z,4.38
2023-02-06T12:26:01.219Z,4.32
2023-02-06T12:28:35.518Z,4.97
2023-02-06T12:31:11.512Z,5.13
2023-02-06T12:33:46.390Z,4.60
2023-02-06T12:36:21.010Z,4.43
2023-02-06T12:38:56.236Z,4.07
2023-02-06T12:41:45.418Z,4.40
2023-02-06T12:44:28.250Z,4.13
2023-02-06T12:47:07.802Z,5.30
2023-02-06T12:49:47.039Z,4.55
2023-02-06T12:52:23.244Z,4.57
2023-02-06T12:54:56.969Z,4.95
2023-02-06T12:57:31.301Z,4.68
2023-02-06T13:00:41.691Z,5.03
2023-02-06T13:03:32.799Z,5.03
2023-02-06T13:06:26.115Z,4.50
2023-02-06T13:08:59.862Z,4.72
2023-02-06T13:11:33.317Z,5.35
2023-02-06T13:14:08.840Z,5.45
2023-02-06T13:16:54.207Z,4.20
2023-02-06T13:19:28.899Z,4.93
2023-02-06T13:22:43.105Z,5.03
2023-02-06T13:25:54.742Z,4.60
2023-02-06T13:28:59.043Z,4.28
2023-02-06T13:31:35.622Z,4.78
2023-02-06T13:34:17.024Z,4.70
2023-02-06T13:36:54.255Z,4.15
2023-02-06T13:39:34.201Z,5.00
2023-02-06T13:42:45.022Z,4.00
2023-02-06T13:45:24.521Z,4.28
2023-02-06T13:48:57.755Z,4.80
2023-02-06T13:51:48.540Z,4.32
2023-02-06T13:55:02.485Z,4.25
2023-02-06T13:57:54.968Z,4.47
2023-02-06T14:00:30.512Z,4.55
2023-02-06T14:03:14.844Z,4.40
2023-02-06T14:05:55.687Z,3.80
2023-02-06T14:08:38.748Z,3.85
2023-02-06T14:11:28.181Z,4.03
2023-02-06T14:14:31.003Z,4.00
2023-02-06T14:17:14.842Z,3.60
2023-02-06T14:19:52.769Z,4.07
2023-02-06T14:22:35.450Z,4.13
2023-02-06T14:25:23.318Z,4.63
2023-02-06T14:28:13.057Z,4.20
2023-02-06T14:30:52.465Z,3.30
2023-02-06T14:33:44.524Z,4.63
2023-02-06T14:36:34.125Z,3.55
2023-02-06T14:39:48.511Z,3.53
2023-02-06T14:42:22.100Z,4.20
2023-02-06T14:44:57.289Z,3.30
2023-02-06T14:47:32.602Z,3.42
2023-02-06T14:50:02.984Z,3.55
2023-02-06T14:52:35.932Z,3.63
2023-02-06T14:55:35.686Z,3.70
2023-02-06T14:58:06.090Z,3.58
2023-02-06T15:00:36.634Z,3.47
2023-02-06T15:03:15.859Z,4.82
2023-02-06T15:05:46.736Z,3.95
2023-02-06T15:08:22.137Z,4.10
2023-02-06T15:11:02.589Z,3.35
2023-02-06T15:13:38.689Z,4.05
2023-02-06T15:16:10.360Z,4.07
2023-02-06T15:18:39.438Z,3.58
2023-02-06T15:21:14.052Z,3.47
2023-02-06T15:23:59.706Z,4.25
2023-02-06T15:26:38.267Z,3.58
2023-02-06T15:29:14.924Z,4.20
2023-02-06T15:31:50.107Z,3.95
2023-02-06T15:34:22.970Z,4.93
2023-02-06T15:36:51.980Z,4.55
2023-02-06T15:39:22.902Z,4.00
2023-02-06T15:41:53.928Z,4.57
2023-02-06T15:44:29.669Z,4.63
2023-02-06T15:46:59.339Z,3.58
2023-02-06T15:49:40.299Z,4.32
2023-02-06T15:52:10.325Z,5.32
2023-02-06T15:54:44.971Z,3.97
2023-02-06T15:57:31.529Z,5.10
2023-02-06T16:00:03.778Z,3.70
2023-02-06T16:02:36.314Z,3.97
2023-02-06T16:05:22.130Z,4.25
2023-02-06T16:10:25.987Z,4.93
2023-02-06T16:12:59.111Z,3.95
2023-02-06T16:15:38.728Z,3.92
2023-02-06T16:18:29.071Z,4.20
2023-02-06T16:21:15.090Z,4.13
2023-02-06T16:23:49.811Z,4.43
2023-02-06T16:26:23.415Z,4.78
2023-02-06T16:29:00.811Z,4.03
2023-02-06T16:31:32.880Z,4.20
2023-02-06T16:34:03.451Z,4.75
2023-02-06T16:36:38.385Z,3.97
2023-02-06T16:39:07.684Z,4.30
2023-02-06T16:41:42.973Z,4.82
2023-02-06T16:44:17.330Z,4.90
2023-02-06T16:46:46.834Z,5.18
2023-02-06T16:49:19.770Z,4.95
2023-02-06T16:51:51.319Z,4.35
2023-02-06T16:54:26.464Z,5.80
2023-02-06T16:57:00.080Z,5.57
2023-02-06T16:59:29.384Z,5.53
2023-02-06T17:01:58.259Z,4.50
2023-02-06T17:04:27.272Z,5.18
2023-02-06T17:06:56.560Z,4.80
2023-02-06T17:09:25.334Z,4.10
2023-02-06T17:11:55.683Z,4.43
2023-02-06T17:14:24.783Z,5.07
2023-02-06T17:16:56.321Z,5.70
2023-02-06T17:19:27.976Z,5.60
2023-02-06T17:21:56.542Z,4.68
2023-02-06T17:24:25.543Z,4.80
2023-02-06T17:26:56.071Z,5.53
2023-02-06T17:29:25.392Z,4.75
2023-02-06T17:31:54.220Z,5.25
2023-02-06T17:34:25.645Z,4.65
2023-02-06T17:36:56.148Z,4.88
2023-02-06T17:39:25.685Z,4.93
2023-02-06T17:41:56.730Z,5.43
2023-02-06T17:44:25.580Z,5.88
2023-02-06T17:46:54.270Z,5.63
2023-02-06T17:49:23.094Z,5.15
2023-02-06T17:51:52.070Z,5.07
2023-02-06T17:54:20.842Z,4.38
2023-02-06T17:56:49.874Z,4.97
2023-02-06T17:59:20.629Z,4.28
2023-02-06T18:01:49.600Z,5.93
2023-02-06T18:04:21.435Z,5.47
2023-02-06T18:06:50.451Z,5.28
2023-02-06T18:09:19.418Z,4.80
2023-02-06T18:11:48.325Z,4.45
2023-02-06T18:14:17.639Z,4.68
2023-02-06T18:16:48.463Z,4.32
2023-02-06T18:19:24.130Z,4.63
2023-02-06T18:21:53.430Z,4.47
2023-02-06T18:24:22.488Z,4.45
2023-02-06T18:26:51.849Z,5.00
2023-02-06T18:29:20.638Z,5.28
2023-02-06T18:31:51.052Z,4.95
2023-02-06T18:34:20.570Z,4.32
2023-02-06T18:36:49.698Z,5.65
2023-02-06T18:39:19.045Z,5.50
2023-02-06T18:42:05.845Z,5.60
2023-02-06T18:44:44.333Z,6.18
2023-02-06T18:47:18.981Z,6.65
2023-02-06T18:49:48.380Z,7.95
2023-02-06T18:52:18.115Z,7.85
2023-02-06T18:54:48.916Z,8.05
2023-02-06T18:57:19.140Z,7.22
2023-02-06T18:59:48.439Z,7.70
2023-02-06T19:02:18.982Z,8.60
2023-02-06T19:04:50.934Z,9.43
2023-02-06T19:07:20.053Z,7.10
2023-02-06T19:09:49.098Z,5.75
2023-02-06T19:12:17.998Z,6.25
2023-02-06T19:14:46.745Z,6.40
2023-02-06T19:17:17.733Z,5.57
2023-02-06T19:19:46.838Z,5.78
2023-02-06T19:22:16.565Z,6.47
2023-02-06T19:24:46.350Z,6.30
2023-02-06T19:27:15.830Z,6.28
2023-02-06T19:29:44.754Z,5.57
2023-02-06T19:32:13.763Z,6.15
2023-02-06T19:34:45.399Z,6.13
2023-02-06T19:37:20.809Z,6.63
2023-02-06T19:39:49.934Z,5.47
2023-02-06T19:42:19.146Z,5.40
2023-02-06T19:44:48.214Z,5.63
2023-02-06T19:47:18.768Z,6.05
2023-02-06T19:49:52.772Z,5.80
2023-02-06T19:52:22.267Z,6.10
2023-02-06T19:54:50.995Z,6.30
2023-02-06T19:57:19.863Z,5.95
2023-02-06T19:59:48.711Z,7.60
2023-02-06T20:02:17.743Z,6.82
2023-02-06T20:04:46.646Z,6.45
2023-02-06T20:07:17.186Z,7.88
2023-02-06T20:09:46.038Z,7.63
2023-02-06T20:12:18.262Z,8.15
2023-02-06T20:14:47.215Z,8.00
2023-02-06T20:17:17.548Z,8.10
2023-02-06T20:19:46.374Z,11.75
2023-02-06T20:22:16.655Z,10.35
2023-02-06T20:24:45.760Z,11.77
2023-02-06T20:27:15.465Z,12.20
2023-02-06T20:29:46.041Z,11.43
2023-02-06T20:32:16.679Z,11.32
2023-02-06T20:34:45.394Z,12.07
2023-02-06T20:37:17.790Z,10.75
2023-02-06T20:39:46.619Z,12.05
2023-02-06T20:42:15.515Z,11.80
2023-02-06T20:44:44.171Z,10.88
2023-02-06T20:47:12.792Z,9.75
2023-02-06T20:49:43.159Z,9.68
2023-02-06T20:52:11.867Z,9.48
2023-02-06T20:54:42.616Z,7.85
2023-02-06T20:57:11.300Z,8.70
2023-02-06T20:59:40.248Z,8.18
2023-02-06T21:02:11.144Z,8.75
2023-02-06T21:04:39.765Z,8.77
2023-02-06T21:07:08.684Z,8.38
2023-02-06T21:09:40.047Z,8.50
2023-02-06T21:12:11.536Z,9.38
2023-02-06T21:14:40.568Z,8.95
2023-02-06T21:17:10.211Z,9.05
2023-02-06T21:19:40.669Z,9.05
2023-02-06T21:22:13.492Z,9.00
2023-02-06T21:24:42.645Z,9.45
2023-02-06T21:27:13.095Z,9.77
2023-02-06T21:29:41.819Z,9.32
2023-02-06T21:32:13.894Z,9.27
2023-02-06T21:34:43.864Z,8.65
2023-02-06T21:37:12.735Z,8.02
2023-02-06T21:39:41.379Z,8.68
2023-02-06T21:42:12.022Z,10.40
2023-02-06T21:44:40.648Z,9.63
2023-02-06T21:47:10.039Z,10.50
2023-02-06T21:49:39.445Z,17.20
2023-02-06T21:52:08.008Z,15.05
2023-02-06T21:54:36.555Z,10.48
2023-02-06T21:57:05.370Z,9.13
2023-02-06T21:59:36.535Z,10.07
2023-02-06T22:02:05.451Z,10.30
2023-02-06T22:04:34.107Z,14.10
2023-02-06T22:07:02.744Z,12.48
2023-02-06T22:09:31.604Z,12.10
2023-02-06T22:12:01.748Z,12.93
2023-02-06T22:14:30.526Z,13.15
2023-02-06T22:17:00.844Z,13.68
2023-02-06T22:19:29.804Z,14.13
2023-02-06T22:21:58.270Z,12.07
2023-02-06T22:24:26.980Z,10.93
2023-02-06T22:26:55.664Z,11.65
2023-02-06T22:29:24.587Z,11.25
2023-02-06T22:31:53.074Z,11.15
2023-02-06T22:34:23.090Z,10.20
2023-02-06T22:36:52.966Z,9.57
2023-02-06T22:39:21.760Z,9.75
2023-02-06T22:41:50.842Z,10.65
2023-02-06T22:44:21.629Z,10.65
2023-02-06T22:46:53.146Z,10.05
2023-02-06T22:49:24.541Z,16.50
2023-02-06T22:51:53.112Z,16.52
2023-02-06T22:54:21.898Z,15.18
2023-02-06T22:56:50.523Z,13.55
2023-02-06T22:59:21.872Z,13.75
2023-02-06T23:01:53.506Z,11.82
2023-02-06T23:04:25.688Z,9.18
2023-02-06T23:06:55.232Z,8.80
2023-02-06T23:09:27.162Z,9.93
2023-02-06T23:11:58.242Z,9.40
2023-02-06T23:14:27.815Z,8.30
2023-02-06T23:16:56.914Z,8.70
2023-02-06T23:19:27.321Z,7.75
2023-02-06T23:21:56.453Z,8.55
2023-02-06T23:24:24.942Z,8.38
2023-02-06T23:26:54.591Z,8.20
2023-02-06T23:29:24.553Z,7.22
2023-02-06T23:31:53.768Z,7.60
2023-02-06T23:34:24.546Z,7.88
2023-02-06T23:36:54.894Z,7.05
2023-02-06T23:39:23.887Z,7.55
2023-02-06T23:41:52.489Z,6.82
2023-02-06T23:44:21.317Z,7.35
2023-02-06T23:46:49.655Z,6.82
2023-02-06T23:49:19.969Z,7.88
2023-02-06T23:51:48.386Z,7.82
2023-02-06T23:54:18.272Z,8.07
2023-02-06T23:56:46.822Z,8.90
2023-02-06T23:59:15.345Z,9.82
